sensor_id;sensor_type;location;lat;lon;timestamp;P1;durP1;ratioP1;P2;durP2;ratioP2
41167;SDS011;26906;45.658;9.272;2023-03-21T06:34:53;148.10;;;60.63;;
41167;SDS011;26906;45.658;9.272;2023-03-21T06:37:20;76.25;;;50.55;;
41167;SDS011;26906;45.658;9.272;2023-03-21T06:39:47;80.70;;;52.70;;
41167;SDS011;26906;45.658;9.272;2023-03-21T06:42:13;79.85;;;51.03;;
41167;SDS011;26906;45.658;9.272;2023-03-21T06:44:39;75.28;;;50.63;;
41167;SDS011;26906;45.658;9.272;2023-03-21T06:47:10;103.00;;;50.45;;
41167;SDS011;26906;45.658;9.272;2023-03-21T06:49:36;96.70;;;52.55;;
41167;SDS011;26906;45.658;9.272;2023-03-21T06:52:07;87.18;;;50.78;;
41167;SDS011;26906;45.658;9.272;2023-03-21T06:54:34;76.13;;;49.72;;
41167;SDS011;26906;45.658;9.272;2023-03-21T06:59:34;77.07;;;49.35;;
41167;SDS011;26906;45.658;9.272;2023-03-21T07:02:03;75.10;;;49.45;;
41167;SDS011;26906;45.658;9.272;2023-03-21T07:04:32;71.07;;;48.70;;
41167;SDS011;26906;45.658;9.272;2023-03-21T07:06:58;70.95;;;49.80;;
41167;SDS011;26906;45.658;9.272;2023-03-21T07:09:25;68.00;;;49.00;;
41167;SDS011;26906;45.658;9.272;2023-03-21T07:11:54;71.20;;;50.70;;
41167;SDS011;26906;45.658;9.272;2023-03-21T07:14:24;75.97;;;51.45;;
41167;SDS011;26906;45.658;9.272;2023-03-21T07:16:56;78.35;;;54.42;;
41167;SDS011;26906;45.658;9.272;2023-03-21T07:19:21;77.45;;;54.10;;
41167;SDS011;26906;45.658;9.272;2023-03-21T07:21:47;77.15;;;55.22;;
41167;SDS011;26906;45.658;9.272;2023-03-21T07:24:13;82.38;;;54.45;;
41167;SDS011;26906;45.658;9.272;2023-03-21T07:26:38;78.28;;;55.63;;
41167;SDS011;26906;45.658;9.272;2023-03-21T07:29:04;84.03;;;56.55;;
41167;SDS011;26906;45.658;9.272;2023-03-21T07:31:30;76.88;;;54.05;;
41167;SDS011;26906;45.658;9.272;2023-03-21T07:33:56;75.85;;;53.22;;
41167;SDS011;26906;45.658;9.272;2023-03-21T07:36:21;75.68;;;53.28;;
41167;SDS011;26906;45.658;9.272;2023-03-21T07:38:47;76.93;;;53.67;;
41167;SDS011;26906;45.658;9.272;2023-03-21T07:41:18;74.97;;;53.08;;
41167;SDS011;26906;45.658;9.272;2023-03-21T07:43:45;76.20;;;53.67;;
41167;SDS011;26906;45.658;9.272;2023-03-21T07:46:11;73.72;;;54.03;;
41167;SDS011;26906;45.658;9.272;2023-03-21T07:48:37;69.47;;;51.03;;
41167;SDS011;26906;45.658;9.272;2023-03-21T07:51:04;77.63;;;53.20;;
41167;SDS011;26906;45.658;9.272;2023-03-21T07:53:33;73.97;;;52.38;;
41167;SDS011;26906;45.658;9.272;2023-03-21T07:55:59;70.35;;;51.63;;
41167;SDS011;26906;45.658;9.272;2023-03-21T07:58:24;72.53;;;53.20;;
41167;SDS011;26906;45.658;9.272;2023-03-21T08:00:51;69.88;;;52.58;;
41167;SDS011;26906;45.658;9.272;2023-03-21T08:03:17;77.60;;;52.35;;
41167;SDS011;26906;45.658;9.272;2023-03-21T08:05:43;71.05;;;53.22;;
41167;SDS011;26906;45.658;9.272;2023-03-21T08:08:09;77.30;;;54.25;;
41167;SDS011;26906;45.658;9.272;2023-03-21T08:10:35;69.47;;;52.33;;
41167;SDS011;26906;45.658;9.272;2023-03-21T08:13:00;76.57;;;52.80;;
41167;SDS011;26906;45.658;9.272;2023-03-21T08:15:26;67.70;;;43.42;;
41167;SDS011;26906;45.658;9.272;2023-03-21T08:17:52;70.55;;;50.95;;
41167;SDS011;26906;45.658;9.272;2023-03-21T08:20:19;74.18;;;51.88;;
41167;SDS011;26906;45.658;9.272;2023-03-21T08:22:47;66.70;;;50.70;;
41167;SDS011;26906;45.658;9.272;2023-03-21T08:25:14;66.05;;;50.90;;
41167;SDS011;26906;45.658;9.272;2023-03-21T08:27:42;68.55;;;51.38;;
41167;SDS011;26906;45.658;9.272;2023-03-21T08:30:10;71.45;;;50.15;;
41167;SDS011;26906;45.658;9.272;2023-03-21T08:32:37;72.53;;;49.80;;
41167;SDS011;26906;45.658;9.272;2023-03-21T08:35:06;70.78;;;51.38;;
41167;SDS011;26906;45.658;9.272;2023-03-21T08:37:37;72.70;;;51.25;;
41167;SDS011;26906;45.658;9.272;2023-03-21T08:40:04;67.15;;;49.83;;
41167;SDS011;26906;45.658;9.272;2023-03-21T08:42:33;71.53;;;50.80;;
41167;SDS011;26906;45.658;9.272;2023-03-21T08:44:59;68.97;;;50.13;;
41167;SDS011;26906;45.658;9.272;2023-03-21T08:47:25;67.82;;;51.85;;
41167;SDS011;26906;45.658;9.272;2023-03-21T08:49:51;74.10;;;52.75;;
41167;SDS011;26906;45.658;9.272;2023-03-21T08:52:16;70.28;;;52.13;;
41167;SDS011;26906;45.658;9.272;2023-03-21T08:54:42;73.45;;;52.45;;
41167;SDS011;26906;45.658;9.272;2023-03-21T08:57:09;70.85;;;52.72;;
41167;SDS011;26906;45.658;9.272;2023-03-21T08:59:35;73.68;;;53.80;;
41167;SDS011;26906;45.658;9.272;2023-03-21T09:02:01;70.35;;;52.72;;
41167;SDS011;26906;45.658;9.272;2023-03-21T09:04:27;70.45;;;52.28;;
41167;SDS011;26906;45.658;9.272;2023-03-21T09:06:55;70.43;;;54.17;;
41167;SDS011;26906;45.658;9.272;2023-03-21T09:09:21;68.88;;;50.40;;
41167;SDS011;26906;45.658;9.272;2023-03-21T09:11:46;73.05;;;52.33;;
41167;SDS011;26906;45.658;9.272;2023-03-21T09:14:12;72.60;;;52.58;;
41167;SDS011;26906;45.658;9.272;2023-03-21T09:16:38;69.00;;;52.38;;
41167;SDS011;26906;45.658;9.272;2023-03-21T09:19:05;71.70;;;51.53;;
41167;SDS011;26906;45.658;9.272;2023-03-21T09:21:32;71.47;;;52.25;;
41167;SDS011;26906;45.658;9.272;2023-03-21T09:23:59;72.80;;;53.00;;
41167;SDS011;26906;45.658;9.272;2023-03-21T09:26:27;70.57;;;52.45;;
41167;SDS011;26906;45.658;9.272;2023-03-21T09:28:53;72.65;;;52.85;;
41167;SDS011;26906;45.658;9.272;2023-03-21T09:31:23;72.20;;;50.75;;
41167;SDS011;26906;45.658;9.272;2023-03-21T09:33:49;69.72;;;53.33;;
41167;SDS011;26906;45.658;9.272;2023-03-21T09:36:15;68.50;;;49.80;;
41167;SDS011;26906;45.658;9.272;2023-03-21T09:38:43;71.10;;;50.67;;
41167;SDS011;26906;45.658;9.272;2023-03-21T09:49:05;74.30;;;52.22;;
41167;SDS011;26906;45.658;9.272;2023-03-21T09:51:40;67.47;;;50.28;;
41167;SDS011;26906;45.658;9.272;2023-03-21T09:56:46;67.90;;;51.88;;
41167;SDS011;26906;45.658;9.272;2023-03-21T09:59:20;65.95;;;48.38;;
41167;SDS011;26906;45.658;9.272;2023-03-21T10:01:55;64.57;;;48.13;;
41167;SDS011;26906;45.658;9.272;2023-03-21T10:04:24;63.92;;;47.22;;
41167;SDS011;26906;45.658;9.272;2023-03-21T10:07:00;66.03;;;51.67;;
41167;SDS011;26906;45.658;9.272;2023-03-21T10:09:28;71.43;;;51.40;;
41167;SDS011;26906;45.658;9.272;2023-03-21T10:11:57;60.28;;;46.55;;
41167;SDS011;26906;45.658;9.272;2023-03-21T10:14:30;65.63;;;46.80;;
41167;SDS011;26906;45.658;9.272;2023-03-21T10:17:14;66.30;;;46.75;;
41167;SDS011;26906;45.658;9.272;2023-03-21T10:20:36;57.75;;;43.67;;
41167;SDS011;26906;45.658;9.272;2023-03-21T10:22:45;55.03;;;42.67;;
41167;SDS011;26906;45.658;9.272;2023-03-21T10:25:14;57.75;;;43.75;;
41167;SDS011;26906;45.658;9.272;2023-03-21T10:27:43;52.45;;;38.63;;
41167;SDS011;26906;45.658;9.272;2023-03-21T10:30:18;53.63;;;39.63;;
41167;SDS011;26906;45.658;9.272;2023-03-21T10:33:22;51.88;;;40.10;;
41167;SDS011;26906;45.658;9.272;2023-03-21T10:35:51;53.22;;;41.20;;
41167;SDS011;26906;45.658;9.272;2023-03-21T10:38:23;56.35;;;41.67;;
41167;SDS011;26906;45.658;9.272;2023-03-21T10:40:50;53.53;;;40.70;;
41167;SDS011;26906;45.658;9.272;2023-03-21T10:46:04;51.65;;;38.65;;
41167;SDS011;26906;45.658;9.272;2023-03-21T10:48:52;52.75;;;36.97;;
41167;SDS011;26906;45.658;9.272;2023-03-21T10:51:19;52.42;;;40.83;;
41167;SDS011;26906;45.658;9.272;2023-03-21T10:53:52;54.97;;;39.65;;
41167;SDS011;26906;45.658;9.272;2023-03-21T10:56:22;52.17;;;40.72;;
41167;SDS011;26906;45.658;9.272;2023-03-21T10:58:57;52.97;;;39.78;;
41167;SDS011;26906;45.658;9.272;2023-03-21T11:01:28;59.15;;;39.85;;
41167;SDS011;26906;45.658;9.272;2023-03-21T11:04:13;52.33;;;39.80;;
41167;SDS011;26906;45.658;9.272;2023-03-21T11:06:42;49.75;;;38.92;;
41167;SDS011;26906;45.658;9.272;2023-03-21T11:11:51;53.33;;;39.75;;
41167;SDS011;26906;45.658;9.272;2023-03-21T11:14:35;48.13;;;37.22;;
41167;SDS011;26906;45.658;9.272;2023-03-21T11:17:17;52.47;;;40.88;;
41167;SDS011;26906;45.658;9.272;2023-03-21T11:19:48;58.28;;;39.72;;
41167;SDS011;26906;45.658;9.272;2023-03-21T11:22:22;45.45;;;36.58;;
41167;SDS011;26906;45.658;9.272;2023-03-21T11:24:56;43.15;;;34.10;;
41167;SDS011;26906;45.658;9.272;2023-03-21T11:27:26;48.72;;;35.38;;
41167;SDS011;26906;45.658;9.272;2023-03-21T11:29:53;44.33;;;34.58;;
41167;SDS011;26906;45.658;9.272;2023-03-21T11:37:37;47.60;;;33.35;;
41167;SDS011;26906;45.658;9.272;2023-03-21T11:40:26;40.67;;;32.45;;
41167;SDS011;26906;45.658;9.272;2023-03-21T11:43:24;46.22;;;33.35;;
41167;SDS011;26906;45.658;9.272;2023-03-21T11:48:51;42.22;;;31.33;;
41167;SDS011;26906;45.658;9.272;2023-03-21T11:54:18;35.08;;;27.77;;
41167;SDS011;26906;45.658;9.272;2023-03-21T12:00:06;41.33;;;33.30;;
41167;SDS011;26906;45.658;9.272;2023-03-21T12:24:11;37.38;;;29.80;;
41167;SDS011;26906;45.658;9.272;2023-03-21T12:26:58;44.38;;;29.75;;
41167;SDS011;26906;45.658;9.272;2023-03-21T12:29:34;35.35;;;28.73;;
41167;SDS011;26906;45.658;9.272;2023-03-21T12:39:58;35.30;;;26.08;;
41167;SDS011;26906;45.658;9.272;2023-03-21T12:42:49;33.40;;;24.77;;
41167;SDS011;26906;45.658;9.272;2023-03-21T12:45:23;29.67;;;23.20;;
41167;SDS011;26906;45.658;9.272;2023-03-21T12:47:54;32.50;;;21.48;;
41167;SDS011;26906;45.658;9.272;2023-03-21T12:50:37;32.53;;;22.60;;
41167;SDS011;26906;45.658;9.272;2023-03-21T12:53:50;31.92;;;24.42;;
41167;SDS011;26906;45.658;9.272;2023-03-21T12:56:09;33.55;;;23.23;;
41167;SDS011;26906;45.658;9.272;2023-03-21T12:58:51;30.83;;;24.45;;
41167;SDS011;26906;45.658;9.272;2023-03-21T13:01:23;27.75;;;19.15;;
41167;SDS011;26906;45.658;9.272;2023-03-21T13:03:51;25.13;;;19.35;;
41167;SDS011;26906;45.658;9.272;2023-03-21T13:06:29;26.15;;;20.33;;
41167;SDS011;26906;45.658;9.272;2023-03-21T13:09:56;29.42;;;21.30;;
41167;SDS011;26906;45.658;9.272;2023-03-21T13:11:57;30.88;;;21.63;;
41167;SDS011;26906;45.658;9.272;2023-03-21T13:14:27;33.22;;;22.65;;
41167;SDS011;26906;45.658;9.272;2023-03-21T13:16:59;26.60;;;21.25;;
41167;SDS011;26906;45.658;9.272;2023-03-21T13:19:34;28.10;;;20.27;;
41167;SDS011;26906;45.658;9.272;2023-03-21T13:22:06;33.22;;;21.02;;
41167;SDS011;26906;45.658;9.272;2023-03-21T13:24:45;26.15;;;18.27;;
41167;SDS011;26906;45.658;9.272;2023-03-21T13:30:17;21.05;;;16.77;;
41167;SDS011;26906;45.658;9.272;2023-03-21T13:32:44;25.90;;;18.70;;
41167;SDS011;26906;45.658;9.272;2023-03-21T13:37:52;32.17;;;21.90;;
41167;SDS011;26906;45.658;9.272;2023-03-21T13:40:23;36.20;;;21.77;;
41167;SDS011;26906;45.658;9.272;2023-03-21T13:42:53;38.47;;;24.10;;
41167;SDS011;26906;45.658;9.272;2023-03-21T13:45:28;35.17;;;23.45;;
41167;SDS011;26906;45.658;9.272;2023-03-21T13:48:24;30.80;;;21.35;;
41167;SDS011;26906;45.658;9.272;2023-03-21T13:50:59;33.85;;;22.80;;
41167;SDS011;26906;45.658;9.272;2023-03-21T13:53:57;27.95;;;20.42;;
41167;SDS011;26906;45.658;9.272;2023-03-21T13:56:28;25.35;;;20.60;;
41167;SDS011;26906;45.658;9.272;2023-03-21T13:59:03;38.53;;;23.05;;
41167;SDS011;26906;45.658;9.272;2023-03-21T14:01:38;28.42;;;21.85;;
41167;SDS011;26906;45.658;9.272;2023-03-21T14:06:37;33.35;;;20.05;;
41167;SDS011;26906;45.658;9.272;2023-03-21T14:11:58;35.65;;;21.42;;
41167;SDS011;26906;45.658;9.272;2023-03-21T14:14:28;29.50;;;20.52;;
41167;SDS011;26906;45.658;9.272;2023-03-21T14:17:10;26.77;;;18.73;;
41167;SDS011;26906;45.658;9.272;2023-03-21T14:19:40;30.83;;;20.77;;
41167;SDS011;26906;45.658;9.272;2023-03-21T14:22:09;33.97;;;21.13;;
41167;SDS011;26906;45.658;9.272;2023-03-21T14:24:37;28.00;;;21.35;;
41167;SDS011;26906;45.658;9.272;2023-03-21T14:27:03;28.65;;;21.83;;
41167;SDS011;26906;45.658;9.272;2023-03-21T14:29:31;26.88;;;21.13;;
41167;SDS011;26906;45.658;9.272;2023-03-21T14:31:58;29.15;;;21.60;;
41167;SDS011;26906;45.658;9.272;2023-03-21T14:34:26;28.80;;;21.55;;
41167;SDS011;26906;45.658;9.272;2023-03-21T14:36:54;25.23;;;19.35;;
41167;SDS011;26906;45.658;9.272;2023-03-21T14:39:21;25.20;;;19.58;;
41167;SDS011;26906;45.658;9.272;2023-03-21T14:41:52;29.02;;;20.02;;
41167;SDS011;26906;45.658;9.272;2023-03-21T14:44:24;25.30;;;19.67;;
41167;SDS011;26906;45.658;9.272;2023-03-21T14:47:03;28.35;;;20.00;;
41167;SDS011;26906;45.658;9.272;2023-03-21T14:49:35;25.45;;;20.15;;
41167;SDS011;26906;45.658;9.272;2023-03-21T14:52:06;27.08;;;20.13;;
41167;SDS011;26906;45.658;9.272;2023-03-21T14:54:38;27.02;;;19.48;;
41167;SDS011;26906;45.658;9.272;2023-03-21T14:57:18;28.85;;;19.50;;
41167;SDS011;26906;45.658;9.272;2023-03-21T14:59:46;30.92;;;20.98;;
41167;SDS011;26906;45.658;9.272;2023-03-21T15:02:17;24.83;;;20.50;;
41167;SDS011;26906;45.658;9.272;2023-03-21T15:04:53;29.65;;;22.05;;
41167;SDS011;26906;45.658;9.272;2023-03-21T15:07:29;25.45;;;20.67;;
41167;SDS011;26906;45.658;9.272;2023-03-21T15:09:57;25.58;;;20.42;;
41167;SDS011;26906;45.658;9.272;2023-03-21T15:12:28;27.42;;;20.23;;
41167;SDS011;26906;45.658;9.272;2023-03-21T15:14:54;27.95;;;20.85;;
41167;SDS011;26906;45.658;9.272;2023-03-21T15:17:21;26.85;;;22.48;;
41167;SDS011;26906;45.658;9.272;2023-03-21T15:19:48;28.63;;;20.80;;
41167;SDS011;26906;45.658;9.272;2023-03-21T15:22:34;30.65;;;21.15;;
41167;SDS011;26906;45.658;9.272;2023-03-21T15:25:04;23.75;;;19.98;;
41167;SDS011;26906;45.658;9.272;2023-03-21T15:27:33;25.83;;;21.10;;
41167;SDS011;26906;45.658;9.272;2023-03-21T15:30:02;26.27;;;21.48;;
41167;SDS011;26906;45.658;9.272;2023-03-21T15:32:28;26.38;;;20.40;;
41167;SDS011;26906;45.658;9.272;2023-03-21T15:34:55;34.13;;;22.02;;
41167;SDS011;26906;45.658;9.272;2023-03-21T15:37:33;37.50;;;21.65;;
41167;SDS011;26906;45.658;9.272;2023-03-21T15:43:03;29.63;;;20.08;;
41167;SDS011;26906;45.658;9.272;2023-03-21T15:45:49;29.63;;;21.17;;
41167;SDS011;26906;45.658;9.272;2023-03-21T15:48:21;31.13;;;20.05;;
41167;SDS011;26906;45.658;9.272;2023-03-21T15:51:02;24.98;;;20.23;;
41167;SDS011;26906;45.658;9.272;2023-03-21T15:53:33;58.35;;;23.33;;
41167;SDS011;26906;45.658;9.272;2023-03-21T15:56:01;28.77;;;19.67;;
41167;SDS011;26906;45.658;9.272;2023-03-21T15:58:34;27.40;;;20.05;;
41167;SDS011;26906;45.658;9.272;2023-03-21T16:01:03;26.23;;;18.43;;
41167;SDS011;26906;45.658;9.272;2023-03-21T16:03:34;25.77;;;18.55;;
41167;SDS011;26906;45.658;9.272;2023-03-21T16:06:06;24.55;;;18.15;;
41167;SDS011;26906;45.658;9.272;2023-03-21T16:09:22;30.10;;;18.17;;
41167;SDS011;26906;45.658;9.272;2023-03-21T16:11:55;28.13;;;17.38;;
41167;SDS011;26906;45.658;9.272;2023-03-21T16:14:24;27.02;;;16.77;;
41167;SDS011;26906;45.658;9.272;2023-03-21T16:16:52;26.05;;;16.67;;
41167;SDS011;26906;45.658;9.272;2023-03-21T16:19:18;23.00;;;15.80;;
41167;SDS011;26906;45.658;9.272;2023-03-21T16:21:44;22.85;;;15.25;;
41167;SDS011;26906;45.658;9.272;2023-03-21T16:24:11;24.88;;;16.58;;
41167;SDS011;26906;45.658;9.272;2023-03-21T16:26:41;26.42;;;15.55;;
41167;SDS011;26906;45.658;9.272;2023-03-21T16:29:11;23.60;;;15.87;;
41167;SDS011;26906;45.658;9.272;2023-03-21T16:31:38;22.00;;;15.13;;
41167;SDS011;26906;45.658;9.272;2023-03-21T16:34:04;23.52;;;15.30;;
41167;SDS011;26906;45.658;9.272;2023-03-21T16:36:32;24.77;;;14.82;;
41167;SDS011;26906;45.658;9.272;2023-03-21T16:39:17;23.92;;;16.17;;
41167;SDS011;26906;45.658;9.272;2023-03-21T16:44:12;25.27;;;15.13;;
41167;SDS011;26906;45.658;9.272;2023-03-21T16:46:37;24.58;;;16.23;;
41167;SDS011;26906;45.658;9.272;2023-03-21T16:49:03;27.58;;;16.00;;
41167;SDS011;26906;45.658;9.272;2023-03-21T16:51:30;23.33;;;15.13;;
41167;SDS011;26906;45.658;9.272;2023-03-21T16:53:58;30.15;;;15.77;;
41167;SDS011;26906;45.658;9.272;2023-03-21T16:56:37;26.40;;;16.42;;
41167;SDS011;26906;45.658;9.272;2023-03-21T16:59:06;29.20;;;17.00;;
41167;SDS011;26906;45.658;9.272;2023-03-21T17:01:32;27.45;;;16.92;;
41167;SDS011;26906;45.658;9.272;2023-03-21T17:04:00;28.13;;;17.52;;
41167;SDS011;26906;45.658;9.272;2023-03-21T17:06:28;33.65;;;17.95;;
41167;SDS011;26906;45.658;9.272;2023-03-21T17:08:59;33.60;;;18.05;;
41167;SDS011;26906;45.658;9.272;2023-03-21T17:11:26;33.42;;;18.05;;
41167;SDS011;26906;45.658;9.272;2023-03-21T17:13:56;30.45;;;17.95;;
41167;SDS011;26906;45.658;9.272;2023-03-21T17:16:23;30.90;;;17.55;;
41167;SDS011;26906;45.658;9.272;2023-03-21T17:18:49;30.98;;;17.77;;
41167;SDS011;26906;45.658;9.272;2023-03-21T17:21:23;28.98;;;18.80;;
41167;SDS011;26906;45.658;9.272;2023-03-21T17:23:50;28.80;;;19.10;;
41167;SDS011;26906;45.658;9.272;2023-03-21T17:26:18;31.20;;;18.63;;
41167;SDS011;26906;45.658;9.272;2023-03-21T17:28:56;36.97;;;18.52;;
41167;SDS011;26906;45.658;9.272;2023-03-21T17:31:23;30.77;;;18.70;;
41167;SDS011;26906;45.658;9.272;2023-03-21T17:33:49;34.17;;;18.85;;
41167;SDS011;26906;45.658;9.272;2023-03-21T17:36:16;28.67;;;18.05;;
41167;SDS011;26906;45.658;9.272;2023-03-21T17:38:48;31.42;;;17.90;;
41167;SDS011;26906;45.658;9.272;2023-03-21T17:41:17;31.65;;;18.88;;
41167;SDS011;26906;45.658;9.272;2023-03-21T17:43:45;29.38;;;19.40;;
41167;SDS011;26906;45.658;9.272;2023-03-21T17:46:13;32.38;;;18.60;;
41167;SDS011;26906;45.658;9.272;2023-03-21T17:48:41;30.92;;;19.45;;
41167;SDS011;26906;45.658;9.272;2023-03-21T17:51:07;26.67;;;18.75;;
41167;SDS011;26906;45.658;9.272;2023-03-21T17:53:40;32.15;;;20.60;;
41167;SDS011;26906;45.658;9.272;2023-03-21T17:56:11;33.75;;;20.90;;
41167;SDS011;26906;45.658;9.272;2023-03-21T17:58:39;37.50;;;20.83;;
41167;SDS011;26906;45.658;9.272;2023-03-21T18:01:05;34.50;;;20.95;;
41167;SDS011;26906;45.658;9.272;2023-03-21T18:03:31;34.28;;;19.48;;
41167;SDS011;26906;45.658;9.272;2023-03-21T18:05:57;31.23;;;20.42;;
41167;SDS011;26906;45.658;9.272;2023-03-21T18:08:23;32.97;;;20.55;;
41167;SDS011;26906;45.658;9.272;2023-03-21T18:10:48;29.80;;;20.38;;
41167;SDS011;26906;45.658;9.272;2023-03-21T18:13:14;36.28;;;20.88;;
41167;SDS011;26906;45.658;9.272;2023-03-21T18:15:40;40.78;;;21.05;;
41167;SDS011;26906;45.658;9.272;2023-03-21T18:18:13;29.73;;;20.17;;
41167;SDS011;26906;45.658;9.272;2023-03-21T18:20:38;33.55;;;19.95;;
41167;SDS011;26906;45.658;9.272;2023-03-21T18:23:04;38.55;;;22.20;;
41167;SDS011;26906;45.658;9.272;2023-03-21T18:25:30;30.90;;;21.27;;
41167;SDS011;26906;45.658;9.272;2023-03-21T18:27:55;35.10;;;20.83;;
41167;SDS011;26906;45.658;9.272;2023-03-21T18:30:22;30.25;;;19.70;;
41167;SDS011;26906;45.658;9.272;2023-03-21T18:32:48;30.67;;;20.65;;
41167;SDS011;26906;45.658;9.272;2023-03-21T18:35:14;30.90;;;20.75;;
41167;SDS011;26906;45.658;9.272;2023-03-21T18:37:43;30.27;;;21.58;;
41167;SDS011;26906;45.658;9.272;2023-03-21T18:40:11;30.35;;;21.45;;
41167;SDS011;26906;45.658;9.272;2023-03-21T18:42:38;28.10;;;20.45;;
41167;SDS011;26906;45.658;9.272;2023-03-21T18:45:05;27.35;;;19.23;;
41167;SDS011;26906;45.658;9.272;2023-03-21T18:47:32;35.60;;;22.05;;
41167;SDS011;26906;45.658;9.272;2023-03-21T18:49:58;32.13;;;22.42;;
41167;SDS011;26906;45.658;9.272;2023-03-21T18:52:24;36.58;;;24.65;;
41167;SDS011;26906;45.658;9.272;2023-03-21T18:54:51;40.38;;;24.27;;
41167;SDS011;26906;45.658;9.272;2023-03-21T18:57:17;36.97;;;25.08;;
41167;SDS011;26906;45.658;9.272;2023-03-21T18:59:44;34.83;;;23.77;;
41167;SDS011;26906;45.658;9.272;2023-03-21T19:02:12;41.38;;;24.35;;
41167;SDS011;26906;45.658;9.272;2023-03-21T19:04:40;47.42;;;23.55;;
41167;SDS011;26906;45.658;9.272;2023-03-21T19:07:06;35.08;;;21.90;;
41167;SDS011;26906;45.658;9.272;2023-03-21T19:09:32;39.95;;;24.02;;
41167;SDS011;26906;45.658;9.272;2023-03-21T19:11:59;34.25;;;21.85;;
41167;SDS011;26906;45.658;9.272;2023-03-21T19:14:26;35.78;;;23.00;;
41167;SDS011;26906;45.658;9.272;2023-03-21T19:16:52;32.33;;;22.33;;
41167;SDS011;26906;45.658;9.272;2023-03-21T19:19:20;31.60;;;22.33;;
41167;SDS011;26906;45.658;9.272;2023-03-21T19:21:47;41.45;;;24.10;;
41167;SDS011;26906;45.658;9.272;2023-03-21T19:24:15;38.80;;;23.30;;
41167;SDS011;26906;45.658;9.272;2023-03-21T19:26:41;36.95;;;23.75;;
41167;SDS011;26906;45.658;9.272;2023-03-21T19:29:07;33.15;;;23.25;;
41167;SDS011;26906;45.658;9.272;2023-03-21T19:31:33;27.60;;;20.65;;
41167;SDS011;26906;45.658;9.272;2023-03-21T19:33:59;31.70;;;22.45;;
41167;SDS011;26906;45.658;9.272;2023-03-21T19:36:25;33.78;;;23.38;;
41167;SDS011;26906;45.658;9.272;2023-03-21T19:38:51;33.45;;;24.80;;
41167;SDS011;26906;45.658;9.272;2023-03-21T19:41:17;36.63;;;24.00;;
41167;SDS011;26906;45.658;9.272;2023-03-21T19:43:44;42.45;;;28.33;;
41167;SDS011;26906;45.658;9.272;2023-03-21T19:46:09;35.38;;;23.15;;
41167;SDS011;26906;45.658;9.272;2023-03-21T19:48:39;27.60;;;21.00;;
41167;SDS011;26906;45.658;9.272;2023-03-21T19:51:06;34.65;;;23.80;;
41167;SDS011;26906;45.658;9.272;2023-03-21T19:53:38;37.88;;;23.25;;
41167;SDS011;26906;45.658;9.272;2023-03-21T19:56:04;39.50;;;24.92;;
41167;SDS011;26906;45.658;9.272;2023-03-21T19:58:30;43.97;;;24.52;;
41167;SDS011;26906;45.658;9.272;2023-03-21T20:00:56;38.92;;;27.83;;
41167;SDS011;26906;45.658;9.272;2023-03-21T20:03:24;58.20;;;34.30;;
41167;SDS011;26906;45.658;9.272;2023-03-21T20:05:50;41.03;;;28.00;;
41167;SDS011;26906;45.658;9.272;2023-03-21T20:08:15;41.15;;;26.25;;
41167;SDS011;26906;45.658;9.272;2023-03-21T20:10:44;46.85;;;27.25;;
41167;SDS011;26906;45.658;9.272;2023-03-21T20:13:10;39.30;;;28.88;;
41167;SDS011;26906;45.658;9.272;2023-03-21T20:15:36;44.05;;;28.83;;
41167;SDS011;26906;45.658;9.272;2023-03-21T20:18:02;37.90;;;27.33;;
41167;SDS011;26906;45.658;9.272;2023-03-21T20:20:28;44.38;;;28.38;;
41167;SDS011;26906;45.658;9.272;2023-03-21T20:22:55;39.03;;;27.90;;
41167;SDS011;26906;45.658;9.272;2023-03-21T20:25:25;40.20;;;27.65;;
41167;SDS011;26906;45.658;9.272;2023-03-21T20:27:50;42.13;;;28.92;;
41167;SDS011;26906;45.658;9.272;2023-03-21T20:30:16;42.55;;;28.83;;
41167;SDS011;26906;45.658;9.272;2023-03-21T20:32:43;51.08;;;30.60;;
41167;SDS011;26906;45.658;9.272;2023-03-21T20:35:12;43.03;;;29.02;;
41167;SDS011;26906;45.658;9.272;2023-03-21T20:37:41;52.25;;;27.73;;
41167;SDS011;26906;45.658;9.272;2023-03-21T20:40:12;45.78;;;27.20;;
41167;SDS011;26906;45.658;9.272;2023-03-21T20:42:40;44.40;;;28.90;;
41167;SDS011;26906;45.658;9.272;2023-03-21T20:45:07;44.03;;;30.67;;
41167;SDS011;26906;45.658;9.272;2023-03-21T20:47:38;43.33;;;30.50;;
41167;SDS011;26906;45.658;9.272;2023-03-21T20:50:04;46.40;;;30.20;;
41167;SDS011;26906;45.658;9.272;2023-03-21T20:52:31;38.92;;;29.85;;
41167;SDS011;26906;45.658;9.272;2023-03-21T20:54:58;47.30;;;30.27;;
41167;SDS011;26906;45.658;9.272;2023-03-21T20:57:24;45.17;;;30.23;;
41167;SDS011;26906;45.658;9.272;2023-03-21T20:59:54;43.72;;;31.80;;
41167;SDS011;26906;45.658;9.272;2023-03-21T21:02:23;41.63;;;28.50;;
41167;SDS011;26906;45.658;9.272;2023-03-21T21:04:49;41.70;;;28.05;;
41167;SDS011;26906;45.658;9.272;2023-03-21T21:07:17;43.85;;;29.30;;
41167;SDS011;26906;45.658;9.272;2023-03-21T21:09:45;44.42;;;28.00;;
41167;SDS011;26906;45.658;9.272;2023-03-21T21:12:12;43.35;;;27.65;;
41167;SDS011;26906;45.658;9.272;2023-03-21T21:14:39;38.85;;;27.50;;
41167;SDS011;26906;45.658;9.272;2023-03-21T21:17:06;42.75;;;27.85;;
